sensor_id;sensor_type;location;lat;lon;timestamp;temperature;humidity
56298;DHT22;42208;6.376;-10.782;2022-11-20T00:01:25;25.60;99.90
56298;DHT22;42208;6.376;-10.782;2022-11-20T00:03:55;25.60;99.90
56298;DHT22;42208;6.376;-10.782;2022-11-20T00:06:24;25.60;99.90
56298;DHT22;42208;6.376;-10.782;2022-11-20T00:08:55;25.60;99.90
56298;DHT22;42208;6.376;-10.782;2022-11-20T00:11:25;25.50;99.90
56298;DHT22;42208;6.376;-10.782;2022-11-20T00:13:57;25.60;99.90
56298;DHT22;42208;6.376;-10.782;2022-11-20T00:16:27;25.60;99.90
56298;DHT22;42208;6.376;-10.782;2022-11-20T00:18:56;25.50;99.90
56298;DHT22;42208;6.376;-10.782;2022-11-20T00:21:26;25.50;99.90
56298;DHT22;42208;6.376;-10.782;2022-11-20T00:23:56;25.50;99.90
56298;DHT22;42208;6.376;-10.782;2022-11-20T00:26:25;25.50;99.90
56298;DHT22;42208;6.376;-10.782;2022-11-20T00:28:57;25.60;99.90
56298;DHT22;42208;6.376;-10.782;2022-11-20T00:31:27;25.50;99.90
56298;DHT22;42208;6.376;-10.782;2022-11-20T00:33:55;25.50;99.90
56298;DHT22;42208;6.376;-10.782;2022-11-20T00:36:25;25.60;99.90
56298;DHT22;42208;6.376;-10.782;2022-11-20T00:38:56;25.50;99.90
56298;DHT22;42208;6.376;-10.782;2022-11-20T00:41:26;25.50;99.90
56298;DHT22;42208;6.376;-10.782;2022-11-20T00:43:55;25.50;99.90
56298;DHT22;42208;6.376;-10.782;2022-11-20T00:46:26;25.50;99.90
56298;DHT22;42208;6.376;-10.782;2022-11-20T00:48:55;25.50;99.90
56298;DHT22;42208;6.376;-10.782;2022-11-20T00:51:25;25.50;99.90
56298;DHT22;42208;6.376;-10.782;2022-11-20T00:53:58;25.50;99.90
56298;DHT22;42208;6.376;-10.782;2022-11-20T00:56:26;25.60;99.90
56298;DHT22;42208;6.376;-10.782;2022-11-20T00:58:55;25.50;99.90
56298;DHT22;42208;6.376;-10.782;2022-11-20T01:01:25;25.60;99.90
56298;DHT22;42208;6.376;-10.782;2022-11-20T01:03:55;25.50;99.90
56298;DHT22;42208;6.376;-10.782;2022-11-20T01:06:32;25.50;99.90
56298;DHT22;42208;6.376;-10.782;2022-11-20T01:09:14;25.60;99.90
56298;DHT22;42208;6.376;-10.782;2022-11-20T01:11:44;25.50;99.90
56298;DHT22;42208;6.376;-10.782;2022-11-20T01:14:15;25.60;99.90
56298;DHT22;42208;6.376;-10.782;2022-11-20T01:16:46;25.60;99.90
56298;DHT22;42208;6.376;-10.782;2022-11-20T01:19:18;25.60;99.90
56298;DHT22;42208;6.376;-10.782;2022-11-20T01:21:50;25.70;99.90
56298;DHT22;42208;6.376;-10.782;2022-11-20T01:24:21;25.60;99.90
56298;DHT22;42208;6.376;-10.782;2022-11-20T01:26:50;25.70;99.90
56298;DHT22;42208;6.376;-10.782;2022-11-20T01:29:21;25.70;99.90
56298;DHT22;42208;6.376;-10.782;2022-11-20T01:31:51;25.80;99.90
56298;DHT22;42208;6.376;-10.782;2022-11-20T01:34:20;25.90;99.90
56298;DHT22;42208;6.376;-10.782;2022-11-20T01:36:49;25.90;99.90
56298;DHT22;42208;6.376;-10.782;2022-11-20T01:39:20;25.90;99.90
56298;DHT22;42208;6.376;-10.782;2022-11-20T01:41:51;26.00;99.90
56298;DHT22;42208;6.376;-10.782;2022-11-20T01:44:23;26.10;99.90
56298;DHT22;42208;6.376;-10.782;2022-11-20T01:47:13;26.10;99.90
56298;DHT22;42208;6.376;-10.782;2022-11-20T01:49:48;26.20;99.90
56298;DHT22;42208;6.376;-10.782;2022-11-20T01:52:34;26.20;99.90
56298;DHT22;42208;6.376;-10.782;2022-11-20T01:55:07;26.30;99.90
56298;DHT22;42208;6.376;-10.782;2022-11-20T01:57:38;26.30;99.90
56298;DHT22;42208;6.376;-10.782;2022-11-20T02:00:12;26.40;99.90
56298;DHT22;42208;6.376;-10.782;2022-11-20T02:02:46;26.40;99.90
56298;DHT22;42208;6.376;-10.782;2022-11-20T02:07:57;26.40;99.90
56298;DHT22;42208;6.376;-10.782;2022-11-20T02:10:27;26.30;99.90
56298;DHT22;42208;6.376;-10.782;2022-11-20T02:12:56;26.30;99.90
56298;DHT22;42208;6.376;-10.782;2022-11-20T02:15:24;26.30;99.90
56298;DHT22;42208;6.376;-10.782;2022-11-20T02:17:57;26.30;99.90
56298;DHT22;42208;6.376;-10.782;2022-11-20T02:20:26;26.30;99.90
56298;DHT22;42208;6.376;-10.782;2022-11-20T02:23:08;26.30;99.90
56298;DHT22;42208;6.376;-10.782;2022-11-20T02:25:40;26.30;99.90
56298;DHT22;42208;6.376;-10.782;2022-11-20T02:28:09;26.20;99.90
56298;DHT22;42208;6.376;-10.782;2022-11-20T02:30:38;26.20;99.90
56298;DHT22;42208;6.376;-10.782;2022-11-20T02:33:06;26.20;99.90
56298;DHT22;42208;6.376;-10.782;2022-11-20T02:38:02;26.10;99.90
56298;DHT22;42208;6.376;-10.782;2022-11-20T02:40:31;26.10;99.90
56298;DHT22;42208;6.376;-10.782;2022-11-20T02:42:59;26.10;99.90
56298;DHT22;42208;6.376;-10.782;2022-11-20T02:45:27;26.10;99.90
56298;DHT22;42208;6.376;-10.782;2022-11-20T02:47:55;26.00;99.90
56298;DHT22;42208;6.376;-10.782;2022-11-20T02:50:23;26.00;99.90
56298;DHT22;42208;6.376;-10.782;2022-11-20T02:52:52;25.90;99.90
56298;DHT22;42208;6.376;-10.782;2022-11-20T02:55:20;25.70;99.90
56298;DHT22;42208;6.376;-10.782;2022-11-20T02:57:48;25.80;99.90
56298;DHT22;42208;6.376;-10.782;2022-11-20T03:00:16;25.70;99.90
56298;DHT22;42208;6.376;-10.782;2022-11-20T03:02:44;25.70;99.90
56298;DHT22;42208;6.376;-10.782;2022-11-20T03:05:13;25.70;99.90
56298;DHT22;42208;6.376;-10.782;2022-11-20T03:07:41;25.70;99.90
56298;DHT22;42208;6.376;-10.782;2022-11-20T03:10:11;25.70;99.90
56298;DHT22;42208;6.376;-10.782;2022-11-20T03:12:39;25.70;99.90
56298;DHT22;42208;6.376;-10.782;2022-11-20T03:15:07;25.70;99.90
56298;DHT22;42208;6.376;-10.782;2022-11-20T03:17:36;25.70;99.90
56298;DHT22;42208;6.376;-10.782;2022-11-20T03:20:05;25.60;99.90
56298;DHT22;42208;6.376;-10.782;2022-11-20T03:22:33;25.60;99.90
56298;DHT22;42208;6.376;-10.782;2022-11-20T03:25:01;25.60;99.90
56298;DHT22;42208;6.376;-10.782;2022-11-20T03:27:33;25.60;99.90
56298;DHT22;42208;6.376;-10.782;2022-11-20T03:30:02;25.60;99.90
56298;DHT22;42208;6.376;-10.782;2022-11-20T03:32:31;25.60;99.90
56298;DHT22;42208;6.376;-10.782;2022-11-20T03:34:59;25.50;99.90
56298;DHT22;42208;6.376;-10.782;2022-11-20T03:37:27;25.50;99.90
56298;DHT22;42208;6.376;-10.782;2022-11-20T03:39:55;25.40;99.90
56298;DHT22;42208;6.376;-10.782;2022-11-20T03:42:23;25.50;99.90
56298;DHT22;42208;6.376;-10.782;2022-11-20T03:44:52;25.40;99.90
56298;DHT22;42208;6.376;-10.782;2022-11-20T03:47:20;25.50;99.90
56298;DHT22;42208;6.376;-10.782;2022-11-20T03:49:48;25.50;99.90
56298;DHT22;42208;6.376;-10.782;2022-11-20T03:52:16;25.40;99.90
56298;DHT22;42208;6.376;-10.782;2022-11-20T03:54:45;25.40;99.90
56298;DHT22;42208;6.376;-10.782;2022-11-20T03:57:13;25.40;99.90
56298;DHT22;42208;6.376;-10.782;2022-11-20T03:59:41;25.40;99.90
56298;DHT22;42208;6.376;-10.782;2022-11-20T04:02:09;25.40;99.90
56298;DHT22;42208;6.376;-10.782;2022-11-20T04:04:37;25.40;99.90
56298;DHT22;42208;6.376;-10.782;2022-11-20T04:07:06;25.40;99.90
56298;DHT22;42208;6.376;-10.782;2022-11-20T04:09:34;25.40;99.90
56298;DHT22;42208;6.376;-10.782;2022-11-20T04:12:02;25.40;99.90
56298;DHT22;42208;6.376;-10.782;2022-11-20T04:14:30;25.30;99.90
56298;DHT22;42208;6.376;-10.782;2022-11-20T04:16:58;25.30;99.90
56298;DHT22;42208;6.376;-10.782;2022-11-20T04:19:27;25.30;99.90
56298;DHT22;42208;6.376;-10.782;2022-11-20T04:21:55;25.30;99.90
56298;DHT22;42208;6.376;-10.782;2022-11-20T04:24:23;25.30;99.90
56298;DHT22;42208;6.376;-10.782;2022-11-20T04:26:51;25.30;99.90
56298;DHT22;42208;6.376;-10.782;2022-11-20T04:29:19;25.20;99.90
56298;DHT22;42208;6.376;-10.782;2022-11-20T04:31:48;25.10;99.90
56298;DHT22;42208;6.376;-10.782;2022-11-20T04:34:16;25.00;99.90
56298;DHT22;42208;6.376;-10.782;2022-11-20T04:36:44;25.00;99.90
56298;DHT22;42208;6.376;-10.782;2022-11-20T04:39:13;24.90;99.90
56298;DHT22;42208;6.376;-10.782;2022-11-20T04:41:42;24.80;99.90
56298;DHT22;42208;6.376;-10.782;2022-11-20T04:44:10;24.80;99.90
56298;DHT22;42208;6.376;-10.782;2022-11-20T04:46:42;24.70;99.90
56298;DHT22;42208;6.376;-10.782;2022-11-20T04:49:11;24.70;99.90
56298;DHT22;42208;6.376;-10.782;2022-11-20T04:51:39;24.80;99.90
56298;DHT22;42208;6.376;-10.782;2022-11-20T04:54:08;24.70;99.90
56298;DHT22;42208;6.376;-10.782;2022-11-20T04:56:37;24.70;99.90
56298;DHT22;42208;6.376;-10.782;2022-11-20T04:59:05;24.70;99.90
56298;DHT22;42208;6.376;-10.782;2022-11-20T05:01:33;24.70;99.90
56298;DHT22;42208;6.376;-10.782;2022-11-20T05:04:02;24.70;99.90
56298;DHT22;42208;6.376;-10.782;2022-11-20T05:06:30;24.70;99.90
56298;DHT22;42208;6.376;-10.782;2022-11-20T05:08:58;24.60;99.90
56298;DHT22;42208;6.376;-10.782;2022-11-20T05:11:27;24.60;99.90
56298;DHT22;42208;6.376;-10.782;2022-11-20T05:13:55;24.60;99.90
56298;DHT22;42208;6.376;-10.782;2022-11-20T05:16:26;24.60;99.90
56298;DHT22;42208;6.376;-10.782;2022-11-20T05:18:54;24.60;99.90
56298;DHT22;42208;6.376;-10.782;2022-11-20T05:21:23;24.60;99.90
56298;DHT22;42208;6.376;-10.782;2022-11-20T05:23:51;24.60;99.90
56298;DHT22;42208;6.376;-10.782;2022-11-20T05:26:21;24.50;99.90
56298;DHT22;42208;6.376;-10.782;2022-11-20T05:28:50;24.60;99.90
56298;DHT22;42208;6.376;-10.782;2022-11-20T05:31:23;24.60;99.90
56298;DHT22;42208;6.376;-10.782;2022-11-20T05:33:56;24.70;99.90
56298;DHT22;42208;6.376;-10.782;2022-11-20T05:36:24;24.70;99.90
56298;DHT22;42208;6.376;-10.782;2022-11-20T05:38:53;24.60;99.90
56298;DHT22;42208;6.376;-10.782;2022-11-20T05:41:27;24.60;99.90
56298;DHT22;42208;6.376;-10.782;2022-11-20T05:43:56;24.60;99.90
56298;DHT22;42208;6.376;-10.782;2022-11-20T05:46:25;24.50;99.90
56298;DHT22;42208;6.376;-10.782;2022-11-20T05:48:57;24.50;99.90
56298;DHT22;42208;6.376;-10.782;2022-11-20T05:51:26;24.50;99.90
56298;DHT22;42208;6.376;-10.782;2022-11-20T05:53:56;24.40;99.90
56298;DHT22;42208;6.376;-10.782;2022-11-20T05:56:25;24.40;99.90
56298;DHT22;42208;6.376;-10.782;2022-11-20T05:58:53;24.40;99.90
56298;DHT22;42208;6.376;-10.782;2022-11-20T06:01:23;24.40;99.90
56298;DHT22;42208;6.376;-10.782;2022-11-20T06:03:53;24.40;99.90
56298;DHT22;42208;6.376;-10.782;2022-11-20T06:06:22;24.40;99.90
56298;DHT22;42208;6.376;-10.782;2022-11-20T06:08:50;24.30;99.90
56298;DHT22;42208;6.376;-10.782;2022-11-20T06:11:18;24.30;99.90
56298;DHT22;42208;6.376;-10.782;2022-11-20T06:13:47;24.30;99.90
56298;DHT22;42208;6.376;-10.782;2022-11-20T06:16:17;24.30;99.90
56298;DHT22;42208;6.376;-10.782;2022-11-20T06:18:47;24.30;99.90
56298;DHT22;42208;6.376;-10.782;2022-11-20T06:21:17;24.40;99.90
56298;DHT22;42208;6.376;-10.782;2022-11-20T06:23:46;24.40;99.90
56298;DHT22;42208;6.376;-10.782;2022-11-20T06:26:17;24.30;99.90
56298;DHT22;42208;6.376;-10.782;2022-11-20T06:28:46;24.30;99.90
56298;DHT22;42208;6.376;-10.782;2022-11-20T06:31:17;24.40;99.90
56298;DHT22;42208;6.376;-10.782;2022-11-20T06:33:45;24.30;99.90
56298;DHT22;42208;6.376;-10.782;2022-11-20T06:36:14;24.30;99.90
56298;DHT22;42208;6.376;-10.782;2022-11-20T06:38:43;24.30;99.90
56298;DHT22;42208;6.376;-10.782;2022-11-20T06:41:14;24.20;99.90
56298;DHT22;42208;6.376;-10.782;2022-11-20T06:43:43;24.20;99.90
56298;DHT22;42208;6.376;-10.782;2022-11-20T06:46:12;24.20;99.90
56298;DHT22;42208;6.376;-10.782;2022-11-20T06:48:40;24.30;99.90
56298;DHT22;42208;6.376;-10.782;2022-11-20T06:51:09;24.40;99.90
56298;DHT22;42208;6.376;-10.782;2022-11-20T06:53:37;24.40;99.90
56298;DHT22;42208;6.376;-10.782;2022-11-20T06:56:06;24.40;99.90
56298;DHT22;42208;6.376;-10.782;2022-11-20T06:58:36;24.40;99.90
56298;DHT22;42208;6.376;-10.782;2022-11-20T07:01:12;24.50;99.90
56298;DHT22;42208;6.376;-10.782;2022-11-20T07:03:41;24.50;99.90
56298;DHT22;42208;6.376;-10.782;2022-11-20T07:06:09;24.40;99.90
56298;DHT22;42208;6.376;-10.782;2022-11-20T07:08:38;24.40;99.90
56298;DHT22;42208;6.376;-10.782;2022-11-20T07:11:07;24.40;99.90
56298;DHT22;42208;6.376;-10.782;2022-11-20T07:13:35;24.60;99.90
56298;DHT22;42208;6.376;-10.782;2022-11-20T07:16:06;24.50;99.90
56298;DHT22;42208;6.376;-10.782;2022-11-20T07:18:35;24.60;99.90
56298;DHT22;42208;6.376;-10.782;2022-11-20T07:21:06;24.50;99.90
56298;DHT22;42208;6.376;-10.782;2022-11-20T07:23:35;24.60;99.90
56298;DHT22;42208;6.376;-10.782;2022-11-20T07:26:05;24.60;99.90
56298;DHT22;42208;6.376;-10.782;2022-11-20T07:28:34;24.60;99.90
56298;DHT22;42208;6.376;-10.782;2022-11-20T07:31:02;24.70;99.90
56298;DHT22;42208;6.376;-10.782;2022-11-20T07:33:31;24.60;99.90
56298;DHT22;42208;6.376;-10.782;2022-11-20T07:35:59;24.60;99.90
56298;DHT22;42208;6.376;-10.782;2022-11-20T07:38:28;24.60;99.90
56298;DHT22;42208;6.376;-10.782;2022-11-20T07:40:56;24.60;99.90
56298;DHT22;42208;6.376;-10.782;2022-11-20T07:43:25;24.60;99.90
56298;DHT22;42208;6.376;-10.782;2022-11-20T07:45:57;24.70;99.90
56298;DHT22;42208;6.376;-10.782;2022-11-20T07:48:26;24.70;99.90
56298;DHT22;42208;6.376;-10.782;2022-11-20T07:50:55;24.70;99.90
56298;DHT22;42208;6.376;-10.782;2022-11-20T07:53:23;24.60;99.90
56298;DHT22;42208;6.376;-10.782;2022-11-20T07:56:04;24.70;99.90
56298;DHT22;42208;6.376;-10.782;2022-11-20T07:58:33;24.70;99.90
56298;DHT22;42208;6.376;-10.782;2022-11-20T08:01:06;24.70;99.90
56298;DHT22;42208;6.376;-10.782;2022-11-20T08:03:35;24.80;99.90
56298;DHT22;42208;6.376;-10.782;2022-11-20T08:06:03;24.80;99.90
56298;DHT22;42208;6.376;-10.782;2022-11-20T08:08:32;24.80;99.90
56298;DHT22;42208;6.376;-10.782;2022-11-20T08:11:04;24.80;99.90
56298;DHT22;42208;6.376;-10.782;2022-11-20T08:13:33;24.90;99.90
56298;DHT22;42208;6.376;-10.782;2022-11-20T08:16:01;25.00;99.90
56298;DHT22;42208;6.376;-10.782;2022-11-20T08:18:29;25.00;99.90
56298;DHT22;42208;6.376;-10.782;2022-11-20T08:21:03;25.10;99.90
56298;DHT22;42208;6.376;-10.782;2022-11-20T08:23:32;25.20;99.90
56298;DHT22;42208;6.376;-10.782;2022-11-20T08:26:00;25.30;99.90
56298;DHT22;42208;6.376;-10.782;2022-11-20T08:28:28;25.30;99.90
56298;DHT22;42208;6.376;-10.782;2022-11-20T08:31:01;25.40;99.90
56298;DHT22;42208;6.376;-10.782;2022-11-20T08:33:30;25.30;99.90
56298;DHT22;42208;6.376;-10.782;2022-11-20T08:36:00;25.30;99.90
56298;DHT22;42208;6.376;-10.782;2022-11-20T08:38:29;25.30;99.90
56298;DHT22;42208;6.376;-10.782;2022-11-20T08:41:01;25.30;99.90
56298;DHT22;42208;6.376;-10.782;2022-11-20T08:43:30;25.30;99.90
56298;DHT22;42208;6.376;-10.782;2022-11-20T08:45:58;25.20;99.90
56298;DHT22;42208;6.376;-10.782;2022-11-20T08:48:27;25.30;99.90
56298;DHT22;42208;6.376;-10.782;2022-11-20T08:50:58;25.30;99.90
56298;DHT22;42208;6.376;-10.782;2022-11-20T08:53:27;25.40;99.90
56298;DHT22;42208;6.376;-10.782;2022-11-20T08:55:56;25.60;99.90
56298;DHT22;42208;6.376;-10.782;2022-11-20T08:58:25;25.60;99.90
56298;DHT22;42208;6.376;-10.782;2022-11-20T09:00:54;25.70;99.90
56298;DHT22;42208;6.376;-10.782;2022-11-20T09:03:22;25.70;99.90
56298;DHT22;42208;6.376;-10.782;2022-11-20T09:05:59;25.80;99.90
56298;DHT22;42208;6.376;-10.782;2022-11-20T09:08:28;25.90;99.90
56298;DHT22;42208;6.376;-10.782;2022-11-20T09:10:57;26.10;99.90
56298;DHT22;42208;6.376;-10.782;2022-11-20T09:13:27;26.20;99.90
56298;DHT22;42208;6.376;-10.782;2022-11-20T09:15:56;26.30;99.90
56298;DHT22;42208;6.376;-10.782;2022-11-20T09:18:25;26.50;99.90
56298;DHT22;42208;6.376;-10.782;2022-11-20T09:21:01;26.50;99.90
56298;DHT22;42208;6.376;-10.782;2022-11-20T09:23:34;26.60;99.90
56298;DHT22;42208;6.376;-10.782;2022-11-20T09:26:04;26.70;99.90
56298;DHT22;42208;6.376;-10.782;2022-11-20T09:28:33;26.80;99.90
56298;DHT22;42208;6.376;-10.782;2022-11-20T09:31:08;26.90;99.90
56298;DHT22;42208;6.376;-10.782;2022-11-20T09:33:37;26.90;99.90
56298;DHT22;42208;6.376;-10.782;2022-11-20T09:36:05;27.00;99.90
56298;DHT22;42208;6.376;-10.782;2022-11-20T09:38:33;27.10;99.90
56298;DHT22;42208;6.376;-10.782;2022-11-20T09:41:02;27.20;99.90
56298;DHT22;42208;6.376;-10.782;2022-11-20T09:43:52;27.20;99.90
56298;DHT22;42208;6.376;-10.782;2022-11-20T09:52:51;27.50;99.90
56298;DHT22;42208;6.376;-10.782;2022-11-20T09:55:20;27.50;99.90
56298;DHT22;42208;6.376;-10.782;2022-11-20T09:57:51;27.60;99.90
56298;DHT22;42208;6.376;-10.782;2022-11-20T10:00:20;27.60;99.90
56298;DHT22;42208;6.376;-10.782;2022-11-20T10:02:57;27.60;99.90
56298;DHT22;42208;6.376;-10.782;2022-11-20T10:05:52;27.70;99.90
56298;DHT22;42208;6.376;-10.782;2022-11-20T10:08:28;27.70;99.90
56298;DHT22;42208;6.376;-10.782;2022-11-20T10:11:13;27.80;99.90
56298;DHT22;42208;6.376;-10.782;2022-11-20T10:14:07;27.80;99.90
56298;DHT22;42208;6.376;-10.782;2022-11-20T10:17:00;27.90;99.90
56298;DHT22;42208;6.376;-10.782;2022-11-20T10:19:49;28.00;99.90
56298;DHT22;42208;6.376;-10.782;2022-11-20T10:25:40;28.20;99.90
56298;DHT22;42208;6.376;-10.782;2022-11-20T10:28:24;28.40;99.90
56298;DHT22;42208;6.376;-10.782;2022-11-20T10:31:08;28.50;99.90
56298;DHT22;42208;6.376;-10.782;2022-11-20T10:33:42;28.70;99.90
56298;DHT22;42208;6.376;-10.782;2022-11-20T10:36:41;28.70;99.90
56298;DHT22;42208;6.376;-10.782;2022-11-20T10:41:51;28.70;99.90
56298;DHT22;42208;6.376;-10.782;2022-11-20T10:44:25;28.80;99.90
56298;DHT22;42208;6.376;-10.782;2022-11-20T10:46:54;28.70;99.90
56298;DHT22;42208;6.376;-10.782;2022-11-20T10:49:22;28.70;99.90
56298;DHT22;42208;6.376;-10.782;2022-11-20T10:52:05;28.60;99.90
56298;DHT22;42208;6.376;-10.782;2022-11-20T11:00:10;28.70;99.90
56298;DHT22;42208;6.376;-10.782;2022-11-20T11:02:48;28.70;99.90
56298;DHT22;42208;6.376;-10.782;2022-11-20T11:05:37;28.80;99.90
56298;DHT22;42208;6.376;-10.782;2022-11-20T11:08:15;28.80;99.90
56298;DHT22;42208;6.376;-10.782;2022-11-20T11:13:26;29.10;99.90
56298;DHT22;42208;6.376;-10.782;2022-11-20T11:15:55;29.20;99.90
56298;DHT22;42208;6.376;-10.782;2022-11-20T11:20:57;29.60;99.90
56298;DHT22;42208;6.376;-10.782;2022-11-20T11:23:34;29.50;99.90
56298;DHT22;42208;6.376;-10.782;2022-11-20T11:26:06;29.60;99.90
56298;DHT22;42208;6.376;-10.782;2022-11-20T11:28:35;29.60;99.90
56298;DHT22;42208;6.376;-10.782;2022-11-20T11:31:03;29.50;99.90
56298;DHT22;42208;6.376;-10.782;2022-11-20T11:33:32;29.40;99.90
56298;DHT22;42208;6.376;-10.782;2022-11-20T11:36:02;29.40;99.90
56298;DHT22;42208;6.376;-10.782;2022-11-20T11:38:41;29.50;99.90
56298;DHT22;42208;6.376;-10.782;2022-11-20T11:41:16;29.30;99.90
56298;DHT22;42208;6.376;-10.782;2022-11-20T11:43:56;29.30;99.90
56298;DHT22;42208;6.376;-10.782;2022-11-20T11:46:33;29.10;99.90
56298;DHT22;42208;6.376;-10.782;2022-11-20T11:57:07;29.30;99.90
56298;DHT22;42208;6.376;-10.782;2022-11-20T11:59:49;29.20;99.90
56298;DHT22;42208;6.376;-10.782;2022-11-20T12:02:42;29.20;99.90
56298;DHT22;42208;6.376;-10.782;2022-11-20T12:11:32;29.20;99.90
56298;DHT22;42208;6.376;-10.782;2022-11-20T12:14:45;29.10;99.90
56298;DHT22;42208;6.376;-10.782;2022-11-20T12:16:54;29.10;99.90
56298;DHT22;42208;6.376;-10.782;2022-11-20T12:19:22;29.00;99.90
56298;DHT22;42208;6.376;-10.782;2022-11-20T12:25:22;28.90;99.90
56298;DHT22;42208;6.376;-10.782;2022-11-20T12:30:50;29.00;99.90
56298;DHT22;42208;6.376;-10.782;2022-11-20T12:41:58;29.60;99.90
56298;DHT22;42208;6.376;-10.782;2022-11-20T12:47:32;29.60;99.90
56298;DHT22;42208;6.376;-10.782;2022-11-20T12:50:22;29.60;99.90
56298;DHT22;42208;6.376;-10.782;2022-11-20T12:52:56;29.70;99.90
56298;DHT22;42208;6.376;-10.782;2022-11-20T12:55:25;30.00;99.90
56298;DHT22;42208;6.376;-10.782;2022-11-20T12:58:03;30.20;99.90
56298;DHT22;42208;6.376;-10.782;2022-11-20T13:00:34;30.30;99.90
56298;DHT22;42208;6.376;-10.782;2022-11-20T13:03:41;30.50;99.90
56298;DHT22;42208;6.376;-10.782;2022-11-20T13:06:12;30.60;99.90
56298;DHT22;42208;6.376;-10.782;2022-11-20T13:08:47;30.60;99.90
56298;DHT22;42208;6.376;-10.782;2022-11-20T13:11:37;30.70;99.90
56298;DHT22;42208;6.376;-10.782;2022-11-20T13:14:12;30.90;99.90
56298;DHT22;42208;6.376;-10.782;2022-11-20T13:16:45;31.10;99.90
56298;DHT22;42208;6.376;-10.782;2022-11-20T13:19:17;31.10;99.90
56298;DHT22;42208;6.376;-10.782;2022-11-20T13:21:47;31.00;99.90
56298;DHT22;42208;6.376;-10.782;2022-11-20T13:29:45;31.00;99.90
56298;DHT22;42208;6.376;-10.782;2022-11-20T13:32:15;30.90;99.90
56298;DHT22;42208;6.376;-10.782;2022-11-20T13:37:33;31.20;99.90
56298;DHT22;42208;6.376;-10.782;2022-11-20T13:42:53;31.30;99.90
56298;DHT22;42208;6.376;-10.782;2022-11-20T13:45:28;31.40;99.90
56298;DHT22;42208;6.376;-10.782;2022-11-20T13:48:01;31.50;99.90
56298;DHT22;42208;6.376;-10.782;2022-11-20T14:02:14;31.30;99.90
56298;DHT22;42208;6.376;-10.782;2022-11-20T14:04:47;31.30;99.90
56298;DHT22;42208;6.376;-10.782;2022-11-20T14:07:17;31.30;99.90
56298;DHT22;42208;6.376;-10.782;2022-11-20T14:09:51;31.30;99.90
56298;DHT22;42208;6.376;-10.782;2022-11-20T14:12:23;31.30;99.90
56298;DHT22;42208;6.376;-10.782;2022-11-20T14:14:55;31.50;99.90
56298;DHT22;42208;6.376;-10.782;2022-11-20T14:17:34;31.70;99.90
56298;DHT22;42208;6.376;-10.782;2022-11-20T14:20:12;31.70;99.90
56298;DHT22;42208;6.376;-10.782;2022-11-20T14:22:52;31.80;99.90
56298;DHT22;42208;6.376;-10.782;2022-11-20T14:25:25;31.80;99.90
56298;DHT22;42208;6.376;-10.782;2022-11-20T14:28:00;31.70;99.90
56298;DHT22;42208;6.376;-10.782;2022-11-20T14:30:43;31.70;99.90
56298;DHT22;42208;6.376;-10.782;2022-11-20T14:33:13;31.60;99.90
56298;DHT22;42208;6.376;-10.782;2022-11-20T14:35:47;31.70;99.90
56298;DHT22;42208;6.376;-10.782;2022-11-20T14:38:20;31.70;99.90
56298;DHT22;42208;6.376;-10.782;2022-11-20T14:40:49;31.70;99.90
56298;DHT22;42208;6.376;-10.782;2022-11-20T14:43:20;31.60;99.90
56298;DHT22;42208;6.376;-10.782;2022-11-20T14:46:07;31.40;99.90
56298;DHT22;42208;6.376;-10.782;2022-11-20T14:48:53;31.30;99.90
56298;DHT22;42208;6.376;-10.782;2022-11-20T14:51:39;31.10;99.90
56298;DHT22;42208;6.376;-10.782;2022-11-20T14:54:19;30.80;99.90
56298;DHT22;42208;6.376;-10.782;2022-11-20T14:59:32;30.70;99.90
56298;DHT22;42208;6.376;-10.782;2022-11-20T15:02:08;30.70;99.90
56298;DHT22;42208;6.376;-10.782;2022-11-20T15:04:56;30.70;99.90
56298;DHT22;42208;6.376;-10.782;2022-11-20T15:07:26;30.60;99.90
56298;DHT22;42208;6.376;-10.782;2022-11-20T15:10:06;30.50;99.90
56298;DHT22;42208;6.376;-10.782;2022-11-20T15:16:03;30.50;99.90
56298;DHT22;42208;6.376;-10.782;2022-11-20T15:18:39;30.50;99.90
56298;DHT22;42208;6.376;-10.782;2022-11-20T15:21:13;30.60;99.90
56298;DHT22;42208;6.376;-10.782;2022-11-20T15:23:42;30.50;99.90
56298;DHT22;42208;6.376;-10.782;2022-11-20T15:26:11;30.70;99.90
56298;DHT22;42208;6.376;-10.782;2022-11-20T15:28:47;30.80;99.90
56298;DHT22;42208;6.376;-10.782;2022-11-20T15:31:18;30.80;99.90
56298;DHT22;42208;6.376;-10.782;2022-11-20T15:33:47;30.90;99.90
56298;DHT22;42208;6.376;-10.782;2022-11-20T15:36:16;31.00;99.90
56298;DHT22;42208;6.376;-10.782;2022-11-20T15:38:44;31.10;99.90
56298;DHT22;42208;6.376;-10.782;2022-11-20T15:41:13;31.30;99.90
56298;DHT22;42208;6.376;-10.782;2022-11-20T15:43:41;31.40;99.90
56298;DHT22;42208;6.376;-10.782;2022-11-20T15:46:13;31.40;99.90
56298;DHT22;42208;6.376;-10.782;2022-11-20T15:48:47;31.50;99.90
56298;DHT22;42208;6.376;-10.782;2022-11-20T15:51:34;31.30;99.90
56298;DHT22;42208;6.376;-10.782;2022-11-20T15:54:13;31.20;99.90
56298;DHT22;42208;6.376;-10.782;2022-11-20T15:56:42;31.10;99.90
56298;DHT22;42208;6.376;-10.782;2022-11-20T15:59:10;31.00;99.90
56298;DHT22;42208;6.376;-10.782;2022-11-20T16:01:38;30.90;99.90
56298;DHT22;42208;6.376;-10.782;2022-11-20T16:04:11;30.70;99.90
56298;DHT22;42208;6.376;-10.782;2022-11-20T16:06:39;30.70;99.90
56298;DHT22;42208;6.376;-10.782;2022-11-20T16:09:08;30.70;99.90
56298;DHT22;42208;6.376;-10.782;2022-11-20T16:11:37;30.80;99.90
56298;DHT22;42208;6.376;-10.782;2022-11-20T16:14:05;30.80;99.90
56298;DHT22;42208;6.376;-10.782;2022-11-20T16:16:36;30.90;99.90
56298;DHT22;42208;6.376;-10.782;2022-11-20T16:19:04;31.00;99.90
56298;DHT22;42208;6.376;-10.782;2022-11-20T16:21:32;30.90;99.90
56298;DHT22;42208;6.376;-10.782;2022-11-20T16:24:03;30.90;99.90
56298;DHT22;42208;6.376;-10.782;2022-11-20T16:26:32;30.90;99.90
56298;DHT22;42208;6.376;-10.782;2022-11-20T16:29:02;31.20;99.90
56298;DHT22;42208;6.376;-10.782;2022-11-20T16:31:30;31.30;99.90
56298;DHT22;42208;6.376;-10.782;2022-11-20T16:34:02;31.40;99.90
56298;DHT22;42208;6.376;-10.782;2022-11-20T16:36:40;31.50;99.90
56298;DHT22;42208;6.376;-10.782;2022-11-20T16:39:08;31.50;99.90
56298;DHT22;42208;6.376;-10.782;2022-11-20T16:41:37;31.60;99.90
56298;DHT22;42208;6.376;-10.782;2022-11-20T16:44:10;31.60;99.90
56298;DHT22;42208;6.376;-10.782;2022-11-20T16:46:38;31.50;99.90
56298;DHT22;42208;6.376;-10.782;2022-11-20T16:49:10;31.30;99.90
56298;DHT22;42208;6.376;-10.782;2022-11-20T16:51:39;31.20;99.90
56298;DHT22;42208;6.376;-10.782;2022-11-20T16:54:08;30.90;99.90
56298;DHT22;42208;6.376;-10.782;2022-11-20T16:56:37;30.70;99.90
56298;DHT22;42208;6.376;-10.782;2022-11-20T16:59:05;30.60;99.90
56298;DHT22;42208;6.376;-10.782;2022-11-20T17:01:33;30.50;99.90
56298;DHT22;42208;6.376;-10.782;2022-11-20T17:04:05;30.30;99.90
56298;DHT22;42208;6.376;-10.782;2022-11-20T17:06:36;30.10;99.90
56298;DHT22;42208;6.376;-10.782;2022-11-20T17:09:04;30.00;99.90
56298;DHT22;42208;6.376;-10.782;2022-11-20T17:11:33;29.90;99.90